Date,TemperatureHighF,TemperatureAvgF,TemperatureLowF,DewpointHighF,DewpointAvgF,DewpointLowF,HumidityHigh,HumidityAvg,HumidityLow,PressureMaxIn,PressureMinIn,WindSpeedMaxMPH,WindSpeedAvgMPH,GustSpeedMaxMPH,PrecipitationSumIn
2013-1-1,50,42,34,38,34,32,93,73,52,30.35,30.28,4,1,9,0.00
2013-1-2,40,36,34,32,28,27,85,73,65,30.34,30.30,2,1,7,0.00
2013-1-3,55,44,34,38,34,29,86,69,50,30.33,30.25,2,1,9,0.00
2013-1-4,55,47,38,41,37,30,86,69,52,30.36,30.27,2,1,6,0.00
2013-1-5,53,46,39,42,39,35,95,79,55,30.35,30.16,3,0,8,0.00
2013-1-6,50,44,41,44,42,40,98,93,75,30.25,30.15,2,0,8,0.13
2013-1-7,50,44,38,44,40,35,98,86,73,30.31,30.21,5,1,10,0.00
2013-1-8,54,46,39,46,43,38,99,89,73,30.32,30.22,2,1,5,0.01
2013-1-9,50,46,41,45,43,40,95,88,80,30.26,30.01,7,2,17,0.00
2013-1-10,45,39,33,38,34,32,99,84,62,30.19,30.07,4,1,14,0.00
2013-1-11,46,38,29,34,30,28,96,75,51,30.31,30.20,3,1,7,0.01
2013-1-12,43,37,30,29,24,20,86,59,42,30.31,30.22,3,1,10,0.00
2013-1-13,44,37,27,28,22,13,86,56,36,30.34,30.24,8,2,14,0.00
2013-1-14,48,40,30,25,20,13,64,45,32,30.47,30.27,4,1,13,0.00
2013-1-15,49,40,30,33,30,24,80,67,51,30.58,30.47,2,1,6,0.00
2013-1-16,51,38,33,32,31,29,87,76,46,30.53,30.49,1,1,4,0.00
2013-1-17,64,51,35,40,34,26,75,54,34,30.37,30.25,2,1,6,0.00
2013-1-18,64,53,42,38,33,25,66,47,28,30.32,30.22,3,1,11,0.00
2013-1-19,63,53,41,39,34,26,70,51,31,30.34,30.24,2,1,6,0.00
2013-1-20,63,52,43,37,32,26,71,47,29,30.31,30.20,3,1,9,0.00
2013-1-21,65,54,41,40,32,26,70,44,33,30.26,30.20,3,1,11,0.00
2013-1-22,68,54,43,43,35,25,71,51,24,30.22,30.09,3,1,8,0.00
2013-1-23,63,54,48,46,37,29,88,54,32,30.15,30.06,3,1,10,0.06
2013-1-24,60,55,51,52,48,45,81,78,72,30.21,30.12,2,0,10,0.00
2013-1-25,63,57,51,57,54,51,99,90,75,30.24,30.08,2,1,9,0.05
2013-1-26,54,50,43,52,47,40,99,89,64,30.09,29.98,6,3,14,0.00
2013-1-27,51,44,37,41,39,36,97,82,68,30.20,30.06,5,1,12,0.10
2013-1-28,52,45,35,38,34,29,87,67,54,30.32,30.19,4,1,13,0.00
2013-1-29,55,48,39,41,38,34,85,69,56,30.39,30.30,4,1,13,0.00
2013-1-30,58,51,42,45,42,38,88,71,59,30.41,30.33,3,1,11,0.00
2013-1-31,46,43,40,43,40,37,91,88,81,30.38,30.34,1,1,5,0.00
2013-2-1,56,48,44,42,37,35,82,66,49,30.30,30.26,2,1,7,0.00
2013-2-2,67,56,47,48,43,38,82,63,38,30.34,30.25,2,0,6,0.00
2013-2-3,62,53,42,45,37,33,76,57,43,30.28,30.18,2,1,8,0.00
2013-2-4,63,54,43,48,42,33,86,63,40,30.23,30.11,3,1,9,0.00
2013-2-5,51,47,40,46,42,37,90,84,74,30.14,30.09,4,1,9,0.00
2013-2-6,57,48,38,41,37,32,94,65,45,30.23,30.17,3,1,10,0.00
2013-2-7,49,45,41,42,40,36,92,84,73,30.22,30.06,5,3,12,0.04
2013-2-8,53,43,34,41,32,22,94,70,40,30.05,29.96,8,2,19,0.00
2013-2-9,53,44,33,37,32,25,77,61,46,30.14,30.01,5,1,10,0.00
2013-2-10,56,48,33,38,32,24,84,57,32,30.20,30.08,6,2,12,0.00
2013-2-11,54,45,38,36,27,22,61,49,43,30.25,30.13,3,2,13,0.00
2013-2-12,58,50,36,39,36,30,78,59,46,30.44,30.31,3,1,9,0.00
2013-2-13,60,48,38,41,38,34,87,70,49,30.40,30.28,2,1,8,0.00
2013-2-14,62,50,41,44,39,35,85,67,51,30.31,30.26,2,1,7,0.00
2013-2-15,69,58,44,45,40,32,77,53,36,30.35,30.28,2,1,7,0.00
2013-2-16,66,55,47,41,34,29,69,47,31,30.32,30.20,3,1,10,0.00
2013-2-17,63,55,44,45,40,34,74,58,39,30.08,30.00,3,1,10,0.00
2013-2-18,56,49,41,45,40,35,82,73,62,30.05,29.95,6,3,13,0.00
2013-2-19,43,39,36,40,37,34,97,93,83,29.98,29.79,7,4,19,0.40
2013-2-20,57,44,32,40,34,30,98,70,43,30.08,29.86,5,1,16,0.01
2013-2-21,56,46,36,39,35,29,92,66,41,30.20,30.09,5,1,13,0.00
2013-2-22,58,50,36,40,36,30,82,60,47,30.30,30.21,5,2,11,0.00
2013-2-23,57,50,43,43,33,18,92,56,29,30.27,30.17,7,3,20,0.00
2013-3-1,70,58,45,48,44,40,81,63,42,30.47,30.31,2,1,8,0.00
2013-3-2,69,60,52,50,45,42,78,59,38,30.31,30.11,2,1,7,0.00
2013-3-3,60,55,49,50,48,46,92,77,64,30.12,30.05,4,1,10,0.00
2013-3-4,64,56,44,50,47,41,94,73,55,30.17,30.08,4,1,9,0.00
2013-3-5,59,52,45,46,41,35,95,68,47,30.08,29.90,5,2,12,0.00
2013-3-6,53,48,43,43,41,38,97,78,57,30.11,29.91,10,4,23,0.51
2013-3-7,55,48,39,42,40,36,93,74,57,30.06,29.94,3,1,10,0.00
2013-3-8,60,51,39,43,40,36,93,66,46,30.04,29.87,5,2,12,0.00
2013-3-9,64,51,40,45,38,30,95,65,33,30.35,30.07,4,2,16,0.00
2013-3-10,62,52,40,44,38,26,83,59,44,30.41,30.31,3,1,12,0.00
2013-3-11,69,59,45,47,43,38,86,57,40,30.32,30.16,3,1,9,0.00
2013-3-12,65,52,48,46,44,42,85,74,50,30.21,30.17,2,1,5,0.00
2013-3-13,76,66,53,54,50,45,80,56,41,30.22,30.14,3,1,10,0.00
2013-3-14,76,68,56,53,48,41,66,50,39,30.19,30.10,3,1,9,0.00
2013-3-15,74,62,54,52,47,42,75,59,44,30.13,30.05,3,1,12,0.00
2013-3-16,72,62,48,50,43,38,77,50,30,30.10,30.03,4,1,12,0.00
2013-3-17,67,59,46,44,39,33,71,50,34,30.15,30.06,3,1,11,0.00
2013-3-18,67,59,47,42,38,34,69,48,35,30.14,30.07,3,1,12,0.00
2013-3-19,66,59,50,51,45,37,91,61,34,30.16,30.10,5,1,11,0.12
2013-3-20,56,53,50,54,51,49,98,94,83,30.16,30.12,6,3,16,0.76
2013-3-21,62,54,48,52,45,31,99,73,36,30.14,30.04,4,1,14,0.01
2013-3-22,62,54,42,43,30,24,84,42,26,30.11,30.05,7,3,18,0.00
2013-3-23,66,55,40,37,32,26,65,42,27,30.17,30.09,3,1,9,0.00
2013-3-24,70,61,45,42,38,33,68,45,31,30.14,30.01,3,1,11,0.00
2013-3-25,68,59,47,48,44,39,76,58,43,30.03,29.94,6,2,11,0.00
2013-3-26,69,58,44,49,44,40,87,60,40,30.02,29.96,5,2,12,0.00
2013-3-27,67,59,48,52,48,42,81,67,53,30.03,29.97,5,2,12,0.00
2013-3-28,65,59,52,52,49,44,89,70,49,30.14,30.05,3,1,8,0.00
2013-3-29,77,66,51,53,47,42,80,52,33,30.15,30.06,3,1,10,0.00
2013-3-30,62,58,54,47,47,46,73,66,57,30.07,30.03,3,1,11,0.00
2013-3-31,68,58,52,55,50,46,98,77,49,30.13,30.02,4,2,17,0.84
2013-4-1,60,52,48,51,49,47,97,90,71,30.20,30.09,2,0,8,0.02
2013-4-2,52,49,46,47,44,43,90,84,75,30.20,30.17,2,1,9,0.00
2013-4-3,73,64,50,56,52,46,90,66,51,30.18,30.01,2,1,9,0.00
2013-4-4,59,54,49,57,53,46,98,94,72,30.13,30.01,5,2,14,0.51
2013-4-5,64,57,51,52,51,49,98,79,59,30.21,30.14,5,2,12,0.01
2013-4-6,65,57,49,54,51,48,96,82,65,30.23,30.14,4,2,12,0.00
2013-4-7,64,56,49,54,50,45,94,80,69,30.18,29.88,8,4,18,0.00
2013-4-8,65,55,44,46,37,26,98,58,24,30.00,29.77,10,4,26,0.28
2013-4-9,69,60,47,39,35,29,54,39,28,30.14,30.05,6,4,22,0.00
2013-4-10,80,68,50,52,44,29,55,43,29,30.22,30.01,7,2,14,0.00
2013-4-11,74,66,52,54,46,37,89,51,27,30.01,29.84,4,2,13,0.00
2013-4-12,77,67,51,53,45,38,75,46,25,29.92,29.83,3,1,9,0.00
2013-4-13,76,67,51,52,47,42,74,51,37,29.90,29.80,3,1,8,0.00
2013-4-14,71,61,47,47,40,32,86,50,26,29.91,29.77,5,2,12,0.00
2013-4-16,62,50,39,40,31,20,93,54,23,30.22,29.94,6,3,23,0.01
2013-4-17,65,54,43,30,26,22,50,34,25,30.30,30.22,5,4,20,0.00
2013-4-18,72,59,45,40,31,23,57,37,22,30.34,30.24,3,1,12,0.00
2013-4-19,72,58,49,44,40,37,66,52,32,30.29,30.24,2,1,8,0.00
2013-4-20,79,68,54,52,42,36,65,41,23,30.12,30.00,4,2,13,0.00
2013-4-21,80,68,54,51,46,41,66,48,26,30.07,30.01,4,2,11,0.00
2013-4-22,84,72,57,53,43,34,64,38,19,30.00,29.86,4,2,13,0.00
2013-4-23,81,72,61,43,34,21,47,26,16,29.95,29.85,3,1,11,0.00
2013-4-24,81,65,56,40,34,27,54,35,14,29.89,29.86,3,1,13,0.00
2013-4-25,72,62,48,52,49,45,91,64,44,30.10,29.86,5,3,18,0.00
2013-4-26,78,63,49,54,50,46,91,64,39,30.24,30.12,3,1,8,0.00
2013-4-27,83,70,56,56,52,48,78,56,37,30.23,30.13,3,1,8,0.00
2013-4-28,86,72,60,54,48,38,63,44,28,30.06,29.90,3,1,10,0.00
2013-4-29,85,74,60,59,52,43,72,48,23,29.91,29.81,3,2,14,0.00
2013-4-30,79,67,56,52,46,36,78,52,22,29.83,29.76,4,1,15,0.00
2013-5-1,80,71,57,42,26,11,33,20,12,30.04,29.88,4,2,13,0.00
2013-5-2,88,78,63,44,32,15,29,19,12,30.19,30.08,3,1,10,0.00
2013-5-3,87,74,61,50,44,35,51,36,16,30.10,29.81,3,1,11,0.00
2013-5-4,70,67,63,48,37,28,55,35,21,29.81,29.73,5,1,10,0.00
2013-5-12,90,78,65,62,51,39,75,45,18,30.12,30.00,3,1,9,0.00
2013-5-13,90,75,60,54,48,41,65,42,20,30.07,29.93,3,1,9,0.00
2013-5-14,86,74,64,57,51,44,62,45,31,29.92,29.87,4,2,10,0.00
2013-5-15,76,68,55,51,47,43,67,48,37,30.02,29.92,6,3,17,0.00
2013-5-16,69,62,54,53,50,48,85,66,54,30.03,29.94,7,4,16,0.00
2013-5-17,72,62,48,51,47,42,90,62,33,30.05,29.98,4,3,12,0.00
2013-5-18,60,52,48,43,42,39,81,68,53,30.15,30.07,1,0,5,0.00
2013-5-19,81,68,57,51,46,43,65,48,27,30.12,30.00,4,2,16,0.00
2013-5-20,79,68,60,47,40,35,45,37,29,30.03,29.99,2,1,9,0.00
2013-5-21,78,70,60,47,42,32,55,38,20,29.93,29.86,6,4,15,0.00
2013-5-22,60,50,42,46,31,29,70,49,31,29.99,29.94,3,1,13,0.00
2013-5-23,71,61,44,44,37,27,72,43,27,30.02,29.92,4,2,12,0.00
2013-5-24,77,66,48,44,39,32,68,38,24,30.03,29.93,4,2,10,0.00
2013-5-25,75,65,48,48,42,34,71,46,24,30.01,29.95,4,2,11,0.00
2013-5-26,75,64,50,52,49,44,86,60,35,30.11,30.02,6,3,13,0.00
2013-5-27,62,58,50,54,50,46,86,75,65,30.12,30.04,5,2,13,0.01
2013-5-28,76,63,54,57,54,52,99,76,44,30.03,29.92,3,1,9,0.02
2013-5-29,79,69,55,56,52,47,93,59,37,29.96,29.88,5,2,12,0.02
2013-5-30,82,72,55,55,48,36,81,47,24,29.98,29.92,3,1,12,0.00
2013-5-31,90,76,57,50,45,41,62,35,19,30.01,29.91,4,2,14,0.00
2013-6-1,94,83,64,52,46,41,58,30,16,29.92,29.77,3,1,10,0.00
2013-6-2,94,84,65,56,50,42,57,33,18,29.77,29.64,3,1,10,0.00
2013-6-3,93,80,65,57,54,48,55,41,26,29.75,29.67,4,2,10,0.00
2013-6-4,83,73,59,58,55,51,78,55,40,29.88,29.78,4,2,11,0.00
2013-6-5,87,75,56,60,56,48,75,53,35,29.99,29.87,4,2,13,0.00
2013-6-6,92,80,61,62,59,50,82,50,34,29.91,29.81,3,1,10,0.00
2013-6-7,102,86,68,65,58,48,77,42,18,29.85,29.72,3,1,11,0.00
2013-6-8,105,94,75,62,57,48,44,30,21,29.73,29.63,3,2,13,0.00
2013-6-9,82,73,65,62,56,53,67,55,42,29.82,29.67,7,4,19,0.00
2013-12-3,51,46,35,50,35,20,97,67,37,29.95,29.85,6,3,18,0.00
2013-12-4,46,37,29,25,22,20,72,56,39,30.14,29.95,3,1,10,0.00
2013-12-5,44,36,29,26,21,17,73,57,34,30.24,30.13,2,1,8,0.00
2013-12-6,44,37,28,32,26,20,95,67,47,30.27,30.06,7,3,18,0.00
2013-12-7,38,34,30,36,32,29,98,94,82,30.28,29.98,6,1,22,0.31
2013-12-8,40,33,26,30,26,22,93,77,59,30.38,30.31,3,1,9,0.11
2013-12-9,46,37,26,30,27,23,89,70,50,30.51,30.37,3,1,7,0.02
2013-12-10,51,42,32,32,28,25,87,60,39,30.52,30.28,2,1,8,0.00
2013-12-11,58,46,34,35,33,30,89,63,37,30.34,30.28,2,1,7,0.00
2013-12-12,61,50,39,35,31,26,67,49,30,30.34,30.23,3,1,9,0.00
2013-12-13,56,46,39,32,27,24,66,49,36,30.37,30.30,3,2,12,0.00
2013-12-14,59,49,37,38,34,29,74,57,37,30.49,30.39,2,1,7,0.00
2013-12-15,62,53,42,38,34,29,65,49,32,30.46,30.32,2,1,9,0.00
2013-12-16,66,56,45,41,38,33,68,52,38,30.33,30.21,2,1,5,0.00
2013-12-17,70,60,48,44,40,32,57,48,36,30.26,30.11,1,0,5,0.00
2013-12-18,64,55,50,44,38,32,71,54,37,30.08,29.78,3,1,11,0.00
2013-12-19,59,50,43,45,34,24,88,59,31,29.89,29.72,5,1,15,0.00
2013-12-20,54,47,34,28,24,21,61,43,31,30.05,29.94,3,1,9,0.00
2013-12-21,56,49,39,38,34,29,77,58,47,30.12,30.03,3,1,9,0.00
2013-12-22,60,51,39,40,37,33,82,60,46,30.33,30.17,2,0,7,0.00
2013-12-23,62,51,43,42,39,36,80,64,45,30.48,30.37,1,1,7,0.00
2013-12-24,63,53,45,42,39,34,77,59,44,30.39,30.27,2,1,9,0.00
2013-12-25,66,52,42,43,34,26,73,53,28,30.38,30.28,2,1,11,0.00
2013-12-26,67,55,47,38,30,24,53,40,24,30.33,30.24,2,1,11,0.00
2013-12-27,56,48,45,32,27,24,55,44,31,30.31,30.29,2,1,8,0.00
2013-12-28,65,52,44,35,28,22,59,40,27,30.19,30.07,4,2,11,0.00
2013-12-29,61,50,41,37,30,23,54,46,37,30.25,30.14,2,0,7,0.00
2013-12-30,64,53,44,36,30,25,51,42,30,30.32,30.26,2,1,9,0.00
2013-12-31,65,53,46,36,31,27,53,44,28,30.32,30.20,1,1,7,0.00
2014-1-1,63,51,42,36,32,27,58,48,35,30.27,30.19,2,0,6,0.00
2014-1-2,65,54,46,42,37,34,64,54,37,30.24,30.11,1,1,6,0.00